Time;durP1;ratioP1;P1;durP2;ratioP2;P2;SDS_P1;SDS_P2;PMS_P1;PMS_P2;Temp;Humidity;BMP_temperature;BMP_pressure;BME280_temperature;BME280_humidity;BME280_pressure;Samples;Min_cycle;Max_cycle;Signal;HPM_P1;HPM_P2
2021/08/12 00:00:04;;;;;;;0.52;0.52;;;19.90;48.20;;;;;;4132973;28;20047;-50
2021/08/12 00:02:06;;;;;;;0.73;0.47;;;19.90;48.40;;;;;;4130679;28;20037;-47
2021/08/12 00:04:08;;;;;;;1.00;0.65;;;19.90;48.70;;;;;;4133535;28;20041;-51
2021/08/12 00:06:11;;;;;;;0.60;0.50;;;19.90;48.90;;;;;;4131857;28;20037;-52
2021/08/12 00:08:13;;;;;;;0.50;0.50;;;19.90;47.80;;;;;;4136320;28;20068;-51
2021/08/12 00:10:15;;;;;;;1.10;0.50;;;19.90;47.20;;;;;;4134909;28;20103;-52
2021/08/12 00:12:17;;;;;;;0.40;0.40;;;19.90;47.30;;;;;;4131886;28;20545;-51
2021/08/12 00:14:20;;;;;;;0.73;0.52;;;19.90;47.50;;;;;;4129876;28;20112;-51
2021/08/12 00:16:22;;;;;;;0.80;0.60;;;19.90;47.00;;;;;;4133155;28;20586;-53
2021/08/12 00:18:24;;;;;;;1.05;0.50;;;19.90;47.50;;;;;;4130911;28;20053;-54
2021/08/12 00:20:26;;;;;;;1.13;0.50;;;19.90;47.60;;;;;;4130315;28;20068;-50
2021/08/12 00:22:28;;;;;;;0.93;0.52;;;19.90;47.60;;;;;;4132088;28;20038;-47
2021/08/12 00:24:31;;;;;;;0.43;0.43;;;19.90;47.50;;;;;;4134601;28;20104;-51
2021/08/12 00:26:33;;;;;;;0.50;0.50;;;19.90;47.70;;;;;;4133855;28;20029;-50
2021/08/12 00:28:35;;;;;;;0.43;0.43;;;19.90;47.50;;;;;;4132021;28;20045;-50
2021/08/12 00:30:37;;;;;;;0.40;0.40;;;19.90;46.80;;;;;;4131080;28;20030;-54
2021/08/12 00:32:39;;;;;;;0.50;0.50;;;19.90;47.20;;;;;;4133727;28;20139;-50
2021/08/12 00:34:41;;;;;;;1.38;0.50;;;19.90;47.10;;;;;;4130843;28;20119;-46
2021/08/12 00:36:43;;;;;;;0.52;0.50;;;19.90;46.20;;;;;;4132418;28;20057;-51
2021/08/12 00:38:45;;;;;;;1.05;0.50;;;19.90;46.80;;;;;;4118458;28;21374;-54
2021/08/12 00:40:48;;;;;;;0.80;0.65;;;19.90;46.70;;;;;;4117315;28;20859;-50
2021/08/12 00:42:50;;;;;;;1.55;0.60;;;19.90;46.20;;;;;;4119940;28;20049;-52
2021/08/12 00:44:52;;;;;;;3.05;0.60;;;19.90;45.60;;;;;;4117930;28;20029;-51
2021/08/12 00:46:54;;;;;;;2.85;0.50;;;19.90;43.60;;;;;;4117101;28;20204;-54
2021/08/12 00:48:56;;;;;;;0.47;0.45;;;19.90;44.90;;;;;;4116472;28;20049;-49
2021/08/12 00:50:59;;;;;;;0.95;0.65;;;19.90;45.20;;;;;;4116299;28;20113;-52
2021/08/12 00:53:01;;;;;;;0.73;0.63;;;19.90;45.40;;;;;;4118201;28;20128;-52
2021/08/12 00:55:04;;;;;;;1.92;0.70;;;19.90;45.80;;;;;;4115699;28;20021;-48
2021/08/12 00:57:08;;;;;;;0.77;0.60;;;19.90;45.80;;;;;;4114329;28;20034;-51
2021/08/12 00:59:11;;;;;;;0.98;0.80;;;19.90;45.60;;;;;;4114597;28;20038;-52
2021/08/12 01:01:13;;;;;;;0.87;0.70;;;19.90;45.80;;;;;;4118990;28;20026;-51
2021/08/12 01:03:19;;;;;;;0.75;0.70;;;19.90;45.80;;;;;;4117495;28;20359;-50
2021/08/12 01:05:21;;;;;;;1.35;0.60;;;20.00;46.00;;;;;;4116975;28;20038;-53
2021/08/12 01:07:26;;;;;;;2.00;0.60;;;19.90;45.80;;;;;;4116864;28;20034;-50
2021/08/12 01:09:51;;;;;;;2.30;0.65;;;20.00;45.60;;;;;;4099945;28;20066;-48
2021/08/12 01:12:07;;;;;;;1.10;0.70;;;20.00;44.40;;;;;;4122037;28;20061;-47
2021/08/12 01:14:31;;;;;;;0.40;0.40;;;20.00;44.50;;;;;;4123021;28;20046;-53
2021/08/12 01:16:39;;;;;;;0.70;0.50;;;20.00;44.60;;;;;;4127000;28;20046;-52
2021/08/12 01:19:08;;;;;;;1.52;0.70;;;20.00;45.20;;;;;;4124664;28;20060;-49
2021/08/12 01:21:58;;;;;;;1.48;0.80;;;20.00;45.20;;;;;;4122488;28;20146;-49
2021/08/12 01:24:06;;;;;;;1.00;0.65;;;20.00;45.00;;;;;;4109959;28;20054;-47
2021/08/12 01:26:10;;;;;;;1.85;0.90;;;20.00;44.60;;;;;;4120174;28;20546;-49
2021/08/12 01:28:23;;;;;;;3.95;1.05;;;20.00;43.60;;;;;;4119262;28;20034;-53
2021/08/12 01:30:47;;;;;;;2.95;0.88;;;20.00;44.90;;;;;;4121360;28;20081;-53
2021/08/12 01:33:21;;;;;;;3.90;1.38;;;20.00;44.20;;;;;;4120771;28;20041;-55
2021/08/12 01:35:24;;;;;;;3.35;1.00;;;20.00;44.30;;;;;;4116081;28;20053;-53
2021/08/12 01:37:31;;;;;;;2.13;0.95;;;20.00;43.80;;;;;;4119017;28;20050;-53
2021/08/12 01:39:36;;;;;;;1.42;0.80;;;20.00;43.50;;;;;;4121089;28;20034;-54
2021/08/12 01:41:38;;;;;;;2.72;0.70;;;20.00;42.80;;;;;;4116327;28;20030;-52
2021/08/12 01:43:41;;;;;;;1.23;0.70;;;20.00;42.50;;;;;;4115249;28;20728;-51
2021/08/12 01:45:51;;;;;;;2.40;1.05;;;20.00;42.70;;;;;;4116763;28;20092;-53
2021/08/12 01:47:54;;;;;;;2.28;0.60;;;20.00;42.20;;;;;;4114691;28;20038;-51
2021/08/12 01:49:57;;;;;;;4.85;0.98;;;20.00;41.50;;;;;;4114894;28;20596;-49
2021/08/12 01:51:59;;;;;;;2.72;0.73;;;20.00;42.60;;;;;;4114888;28;20030;-49
2021/08/12 01:54:02;;;;;;;0.70;0.70;;;20.00;41.90;;;;;;4117263;28;20037;-50
2021/08/12 01:56:06;;;;;;;1.73;0.63;;;20.00;42.90;;;;;;4116382;28;20527;-47
2021/08/12 01:58:11;;;;;;;1.38;0.68;;;20.00;41.60;;;;;;4117139;28;20410;-52
2021/08/12 02:00:15;;;;;;;0.40;0.40;;;20.00;41.70;;;;;;4114380;28;20487;-53
2021/08/12 02:02:17;;;;;;;0.55;0.55;;;20.00;41.80;;;;;;4109424;28;20030;-55
2021/08/12 02:04:20;;;;;;;0.43;0.40;;;20.00;42.00;;;;;;4112210;28;20030;-51
2021/08/12 02:06:24;;;;;;;0.95;0.60;;;20.00;41.70;;;;;;4111831;28;20191;-55
2021/08/12 02:08:26;;;;;;;1.55;0.60;;;20.10;42.20;;;;;;4112210;28;20080;-49
2021/08/12 02:10:28;;;;;;;1.63;0.70;;;20.00;41.80;;;;;;4115782;28;20171;-49
2021/08/12 02:12:30;;;;;;;1.35;0.65;;;20.00;42.20;;;;;;4116153;28;20451;-50
2021/08/12 02:14:33;;;;;;;2.33;0.60;;;20.00;42.30;;;;;;4114592;28;20030;-46
2021/08/12 02:16:35;;;;;;;0.90;0.55;;;20.00;42.40;;;;;;4113099;28;20042;-51
2021/08/12 02:18:42;;;;;;;0.73;0.70;;;20.00;42.20;;;;;;4115757;28;20033;-51
2021/08/12 02:20:51;;;;;;;0.57;0.50;;;20.10;43.10;;;;;;4115851;28;20486;-49
2021/08/12 02:23:01;;;;;;;4.90;0.68;;;20.10;43.60;;;;;;4115773;28;20029;-48
2021/08/12 02:25:16;;;;;;;1.70;0.52;;;20.10;42.40;;;;;;4115520;28;20595;-48
2021/08/12 02:27:21;;;;;;;0.55;0.55;;;20.10;42.10;;;;;;4116246;28;20030;-47
2021/08/12 02:29:25;;;;;;;0.73;0.50;;;20.10;41.40;;;;;;4110947;28;20046;-49
2021/08/12 02:31:29;;;;;;;3.30;0.60;;;20.20;38.60;;;;;;4114041;28;20026;-51
2021/08/12 02:33:37;;;;;;;8.75;1.33;;;20.10;39.40;;;;;;4113130;28;20038;-53
2021/08/12 02:35:40;;;;;;;3.15;0.93;;;20.10;40.80;;;;;;4116488;28;20030;-51
2021/08/12 02:37:42;;;;;;;;;;;20.10;40.30;;;;;;4114408;28;20506;-50
2021/08/12 02:39:46;;;;;;;2.47;0.65;;;20.10;40.00;;;;;;4114272;28;20619;-52
2021/08/12 02:41:49;;;;;;;1.27;0.63;;;20.20;40.40;;;;;;4113488;28;20053;-49
2021/08/12 02:43:52;;;;;;;0.52;0.52;;;20.20;40.70;;;;;;4114551;28;20140;-52
2021/08/12 02:46:00;;;;;;;2.30;0.60;;;20.20;40.90;;;;;;4113224;28;20238;-54
2021/08/12 02:48:04;;;;;;;0.95;0.60;;;20.20;40.80;;;;;;4114262;28;20034;-53
2021/08/12 02:50:09;;;;;;;0.88;0.60;;;20.20;40.40;;;;;;4113783;28;20049;-55
2021/08/12 02:52:14;;;;;;;1.88;0.80;;;20.20;40.20;;;;;;4114214;28;20052;-52
2021/08/12 02:54:16;;;;;;;0.60;0.40;;;20.20;40.70;;;;;;4116347;28;20033;-52
2021/08/12 02:56:19;;;;;;;2.17;0.75;;;20.20;41.10;;;;;;4114775;28;20042;-55
2021/08/12 02:58:22;;;;;;;2.40;0.85;;;20.20;41.30;;;;;;4114742;28;20066;-55
2021/08/12 03:00:25;;;;;;;1.92;0.60;;;20.30;41.80;;;;;;4110943;28;20393;-53
2021/08/12 03:02:28;;;;;;;0.88;0.55;;;20.30;42.30;;;;;;4115462;28;20038;-52
2021/08/12 03:04:31;;;;;;;1.50;0.60;;;20.30;42.40;;;;;;4114901;28;20036;-52
2021/08/12 03:06:33;;;;;;;1.25;0.57;;;20.30;42.50;;;;;;4113729;28;20045;-51
2021/08/12 03:08:38;;;;;;;0.30;0.30;;;20.40;42.60;;;;;;4113825;28;20038;-48
2021/08/12 03:10:41;;;;;;;1.55;0.50;;;20.40;42.20;;;;;;4115553;28;20103;-51
2021/08/12 03:12:43;;;;;;;0.30;0.30;;;20.40;42.50;;;;;;4115147;28;20150;-53
2021/08/12 03:14:54;;;;;;;1.77;0.67;;;20.40;42.40;;;;;;4112882;28;20123;-50
2021/08/12 03:17:00;;;;;;;2.72;0.50;;;20.40;42.30;;;;;;4110476;28;20034;-52
2021/08/12 03:19:03;;;;;;;1.23;0.57;;;20.40;40.90;;;;;;4111213;28;20026;-46
2021/08/12 03:21:13;;;;;;;1.15;0.52;;;20.50;39.40;;;;;;4113100;28;20031;-54
2021/08/12 03:23:15;;;;;;;0.38;0.30;;;20.50;40.90;;;;;;4111800;28;20030;-49
2021/08/12 03:25:18;;;;;;;1.17;0.75;;;20.50;41.10;;;;;;4113896;28;20700;-53
2021/08/12 03:27:20;;;;;;;0.85;0.45;;;20.50;40.90;;;;;;4115241;28;20538;-52
2021/08/12 03:29:22;;;;;;;2.20;0.60;;;20.60;40.60;;;;;;4115440;28;20199;-53
2021/08/12 03:31:25;;;;;;;1.85;0.68;;;20.60;41.30;;;;;;4113851;28;20057;-51
2021/08/12 03:33:27;;;;;;;0.45;0.45;;;20.60;40.20;;;;;;4116895;28;20515;-49
2021/08/12 03:35:29;;;;;;;0.50;0.40;;;20.70;40.90;;;;;;4114431;28;20046;-50
2021/08/12 03:37:31;;;;;;;0.57;0.57;;;20.70;41.40;;;;;;4117587;28;20708;-52
2021/08/12 03:39:34;;;;;;;0.40;0.40;;;20.70;39.60;;;;;;4114601;28;20052;-48
2021/08/12 03:41:36;;;;;;;1.90;0.95;;;20.70;38.40;;;;;;4115894;28;20046;-51
2021/08/12 03:43:38;;;;;;;0.98;0.70;;;20.80;39.50;;;;;;4114641;28;20050;-53
2021/08/12 03:45:40;;;;;;;1.63;0.45;;;20.80;39.60;;;;;;4116247;28;20589;-52
2021/08/12 03:47:42;;;;;;;0.47;0.47;;;20.80;38.40;;;;;;4118542;28;20046;-53
2021/08/12 03:49:44;;;;;;;0.55;0.35;;;20.90;39.30;;;;;;4116064;28;20056;-48
2021/08/12 03:51:46;;;;;;;1.25;0.70;;;20.90;39.20;;;;;;4114843;28;20080;-51
2021/08/12 03:53:48;;;;;;;0.85;0.60;;;20.90;38.60;;;;;;4115161;28;20861;-51
2021/08/12 03:55:53;;;;;;;0.73;0.60;;;21.00;39.80;;;;;;4116379;28;20033;-52
2021/08/12 03:57:56;;;;;;;1.85;0.52;;;21.00;40.00;;;;;;4117772;28;20064;-52
2021/08/12 03:59:58;;;;;;;1.92;0.70;;;21.10;40.30;;;;;;4118740;28;20151;-48
2021/08/12 04:02:00;;;;;;;0.50;0.50;;;21.10;39.40;;;;;;4116020;28;20247;-52
2021/08/12 04:04:03;;;;;;;0.63;0.60;;;21.20;39.30;;;;;;4115800;28;20060;-50
2021/08/12 04:06:05;;;;;;;;;;;21.20;38.50;;;;;;4117500;28;20042;-51
2021/08/12 04:08:07;;;;;;;1.15;0.63;;;21.30;37.80;;;;;;4117633;28;19913;-55
2021/08/12 04:10:10;;;;;;;1.48;0.70;;;21.30;37.20;;;;;;4119996;28;20688;-50
2021/08/12 04:12:12;;;;;;;0.82;0.73;;;21.30;37.90;;;;;;4117400;28;20140;-53
2021/08/12 04:14:14;;;;;;;1.38;0.50;;;21.40;38.90;;;;;;4116236;28;20544;-50
2021/08/12 04:16:16;;;;;;;0.60;0.50;;;21.40;38.00;;;;;;4118100;28;20665;-50
2021/08/12 04:18:18;;;;;;;1.20;0.73;;;21.50;37.90;;;;;;4116365;28;20042;-53
2021/08/12 04:20:20;;;;;;;1.65;0.70;;;21.50;38.20;;;;;;4117884;28;20053;-51
2021/08/12 04:22:22;;;;;;;0.73;0.70;;;21.60;39.10;;;;;;4114327;28;20137;-53
2021/08/12 04:24:24;;;;;;;1.95;0.80;;;21.60;39.60;;;;;;4119410;28;20053;-50
2021/08/12 04:26:29;;;;;;;0.88;0.68;;;21.70;40.10;;;;;;4115328;28;20080;-50
2021/08/12 04:28:31;;;;;;;1.70;1.00;;;21.80;40.70;;;;;;4118000;28;20112;-51
2021/08/12 04:30:33;;;;;;;2.13;0.70;;;21.80;40.70;;;;;;4116588;28;20105;-51
2021/08/12 04:32:36;;;;;;;1.30;0.77;;;21.90;39.10;;;;;;4115765;28;20049;-46
2021/08/12 04:34:38;;;;;;;1.38;0.73;;;21.90;39.40;;;;;;4114589;28;20030;-53
2021/08/12 04:36:40;;;;;;;1.58;0.70;;;22.00;40.70;;;;;;4117378;28;20045;-49
2021/08/12 04:38:42;;;;;;;0.93;0.70;;;22.10;40.80;;;;;;4120809;28;20503;-55
2021/08/12 04:40:44;;;;;;;1.60;0.85;;;22.10;40.70;;;;;;4116781;28;20578;-51
2021/08/12 04:42:48;;;;;;;0.70;0.70;;;22.20;41.10;;;;;;4116783;28;20917;-50
2021/08/12 04:44:50;;;;;;;0.98;0.73;;;22.30;40.00;;;;;;4115586;28;20038;-53
2021/08/12 04:46:52;;;;;;;1.10;0.90;;;22.40;40.10;;;;;;4116089;28;20348;-53
2021/08/12 04:48:55;;;;;;;1.15;1.05;;;22.40;39.80;;;;;;4119030;28;20454;-52
2021/08/12 04:50:57;;;;;;;1.95;0.70;;;22.50;38.60;;;;;;4117078;28;20053;-51
2021/08/12 04:52:59;;;;;;;2.00;0.73;;;22.50;35.40;;;;;;4115420;28;20132;-50
2021/08/12 04:55:01;;;;;;;0.60;0.60;;;22.60;36.20;;;;;;4118166;28;20033;-54
2021/08/12 04:57:03;;;;;;;2.08;0.80;;;22.60;36.50;;;;;;4115061;28;20158;-47
2021/08/12 04:59:05;;;;;;;1.75;0.75;;;22.70;37.00;;;;;;4116098;28;20113;-51
2021/08/12 05:01:07;;;;;;;1.20;0.60;;;22.70;36.80;;;;;;4118748;28;20086;-53
2021/08/12 05:03:09;;;;;;;4.35;0.90;;;22.70;37.00;;;;;;4119824;28;20025;-49
2021/08/12 05:05:12;;;;;;;0.90;0.65;;;22.80;36.10;;;;;;4118731;28;20045;-54
2021/08/12 05:07:14;;;;;;;0.70;0.70;;;22.80;37.70;;;;;;4116176;28;20823;-53
2021/08/12 05:09:16;;;;;;;1.27;0.80;;;22.80;38.30;;;;;;4115751;28;20988;-51
2021/08/12 05:11:18;;;;;;;1.63;0.70;;;22.90;38.70;;;;;;4115619;28;20062;-51
2021/08/12 05:13:20;;;;;;;2.47;0.90;;;22.90;39.10;;;;;;4115394;28;20038;-48
2021/08/12 05:15:22;;;;;;;0.93;0.60;;;23.00;39.40;;;;;;4117311;28;20038;-50
2021/08/12 05:17:25;;;;;;;0.75;0.68;;;23.00;39.70;;;;;;4113814;28;20562;-51
2021/08/12 05:19:27;;;;;;;1.10;0.82;;;23.10;39.90;;;;;;4113845;28;20034;-53
2021/08/12 05:21:29;;;;;;;1.85;0.70;;;23.10;40.20;;;;;;4115630;28;20073;-54
2021/08/12 05:23:31;;;;;;;0.60;0.60;;;23.20;40.40;;;;;;4113744;28;20531;-50
2021/08/12 05:25:33;;;;;;;1.35;0.80;;;23.20;40.60;;;;;;4113864;28;20411;-55
2021/08/12 05:27:35;;;;;;;1.15;0.80;;;23.20;40.70;;;;;;4115006;28;20394;-49
2021/08/12 05:29:38;;;;;;;1.13;0.70;;;23.20;40.90;;;;;;4117799;28;20141;-47
2021/08/12 05:31:40;;;;;;;0.75;0.70;;;23.20;41.20;;;;;;4114798;28;20033;-51
2021/08/12 05:33:42;;;;;;;0.70;0.60;;;23.20;41.50;;;;;;4114569;28;20212;-48
2021/08/12 05:35:44;;;;;;;0.60;0.60;;;23.20;41.60;;;;;;4115398;28;20026;-53
2021/08/12 05:37:46;;;;;;;0.95;0.70;;;23.20;41.80;;;;;;4122835;28;20139;-53
2021/08/12 05:39:48;;;;;;;0.50;0.50;;;23.10;41.50;;;;;;4132417;28;20092;-53
2021/08/12 05:41:50;;;;;;;0.40;0.38;;;23.20;41.90;;;;;;4133760;28;20338;-49
2021/08/12 05:43:52;;;;;;;0.80;0.50;;;23.20;41.80;;;;;;4130873;28;20133;-53
2021/08/12 05:45:55;;;;;;;0.60;0.60;;;23.20;42.20;;;;;;4133888;28;20337;-52
2021/08/12 05:47:57;;;;;;;0.60;0.60;;;23.10;42.20;;;;;;4132608;28;20036;-52
2021/08/12 05:49:59;;;;;;;1.05;0.47;;;23.20;42.00;;;;;;4133242;28;20128;-51
2021/08/12 05:52:01;;;;;;;0.60;0.60;;;23.10;42.20;;;;;;4134755;28;20037;-50
2021/08/12 05:54:03;;;;;;;1.20;0.32;;;23.10;42.50;;;;;;4131977;28;20766;-53
2021/08/12 05:56:06;;;;;;;1.83;0.50;;;23.10;42.60;;;;;;4134760;28;20025;-53
2021/08/12 05:58:08;;;;;;;0.50;0.50;;;23.10;42.80;;;;;;4134076;28;20351;-52
2021/08/12 06:00:10;;;;;;;1.40;0.50;;;23.10;42.90;;;;;;4131904;28;20041;-52
2021/08/12 06:02:13;;;;;;;0.57;0.50;;;23.10;43.00;;;;;;4132155;28;20037;-53
2021/08/12 06:04:15;;;;;;;0.30;0.30;;;23.10;43.20;;;;;;4133662;28;20033;-50
2021/08/12 06:06:17;;;;;;;0.95;0.52;;;23.10;42.90;;;;;;4132780;28;20803;-50
2021/08/12 06:08:19;;;;;;;0.90;0.40;;;23.10;43.20;;;;;;4132728;28;20147;-49
2021/08/12 06:10:22;;;;;;;2.55;0.55;;;23.10;43.30;;;;;;4131479;28;20144;-53
2021/08/12 06:12:24;;;;;;;1.08;0.35;;;23.10;43.50;;;;;;4130777;28;20904;-52
2021/08/12 06:14:26;;;;;;;1.20;0.40;;;23.00;43.70;;;;;;4133014;28;20794;-44
2021/08/12 06:16:28;;;;;;;0.50;0.50;;;23.00;43.70;;;;;;4133346;28;20115;-52
2021/08/12 06:18:30;;;;;;;0.50;0.50;;;23.00;43.80;;;;;;4132756;28;20459;-49
2021/08/12 06:20:32;;;;;;;0.38;0.38;;;23.10;43.70;;;;;;4134643;28;20060;-53
2021/08/12 06:22:34;;;;;;;0.30;0.30;;;23.10;43.80;;;;;;4131590;28;20036;-50
2021/08/12 06:24:37;;;;;;;0.50;0.50;;;23.00;43.60;;;;;;4134387;28;20033;-48
2021/08/12 06:26:39;;;;;;;0.77;0.52;;;23.10;43.80;;;;;;4135271;28;20125;-48
2021/08/12 06:28:41;;;;;;;0.95;0.43;;;23.10;43.80;;;;;;4133344;28;20096;-52
2021/08/12 06:30:43;;;;;;;0.43;0.30;;;23.10;43.80;;;;;;4134985;28;20124;-53
2021/08/12 06:32:45;;;;;;;0.65;0.45;;;23.00;43.80;;;;;;4136575;28;20041;-52
2021/08/12 06:34:47;;;;;;;0.40;0.40;;;23.10;44.00;;;;;;4140783;28;20032;-53
2021/08/12 06:51:37;;;;;;;3.10;0.80;;;23.10;44.30;;;;;;4139538;28;20074;-49
2021/08/12 06:53:40;;;;;;;0.90;0.50;;;23.00;44.20;;;;;;4106035;28;20054;-50
2021/08/12 06:55:42;;;;;;;1.00;0.73;;;23.00;44.30;;;;;;4106875;28;20344;-54
2021/08/12 06:57:44;;;;;;;1.20;0.70;;;23.00;44.30;;;;;;4107122;28;20100;-50
2021/08/12 06:59:46;;;;;;;2.08;0.73;;;23.00;44.30;;;;;;4107334;28;20045;-51
2021/08/12 07:01:48;;;;;;;1.88;0.80;;;23.00;44.40;;;;;;4109110;28;20034;-55
2021/08/12 07:03:51;;;;;;;4.30;1.33;;;22.90;44.50;;;;;;4110981;28;20925;-50
2021/08/12 07:05:53;;;;;;;1.52;1.42;;;22.90;44.50;;;;;;4108652;28;20030;-53
2021/08/12 07:07:55;;;;;;;3.75;2.70;;;22.90;44.30;;;;;;4110833;28;20030;-52
2021/08/12 07:09:57;;;;;;;5.50;5.00;;;22.90;44.30;;;;;;4110979;28;20042;-50
2021/08/12 07:11:59;;;;;;;7.13;6.53;;;22.80;44.10;;;;;;4111851;28;20042;-50
2021/08/12 07:14:01;;;;;;;9.52;8.80;;;22.80;44.10;;;;;;4117713;28;20029;-51
2021/08/12 07:16:03;;;;;;;11.20;10.45;;;22.70;44.00;;;;;;4116231;28;20025;-50
2021/08/12 07:18:05;;;;;;;11.90;11.07;;;22.70;44.00;;;;;;4114268;28;20499;-50
2021/08/12 07:20:08;;;;;;;14.15;13.25;;;22.70;44.10;;;;;;4115836;28;20044;-51
2021/08/12 07:22:10;;;;;;;13.43;12.52;;;22.70;44.00;;;;;;4112465;28;20463;-46
2021/08/12 07:24:12;;;;;;;13.70;12.82;;;22.70;44.00;;;;;;4116485;28;20725;-48
2021/08/12 07:26:16;;;;;;;13.45;12.55;;;22.60;44.00;;;;;;4117574;28;20026;-49
2021/08/12 07:28:18;;;;;;;13.95;13.05;;;22.60;43.90;;;;;;4117806;28;20072;-49
2021/08/12 07:30:21;;;;;;;14.55;13.63;;;22.60;43.90;;;;;;4117124;28;20389;-53
2021/08/12 07:32:23;;;;;;;13.75;12.82;;;22.60;43.90;;;;;;4116128;28;20241;-50
2021/08/12 07:34:25;;;;;;;14.82;13.82;;;22.60;44.00;;;;;;4116861;28;20041;-51
2021/08/12 07:36:27;;;;;;;20.60;19.30;;;22.50;43.90;;;;;;4118800;28;20038;-50
2021/08/12 07:38:30;;;;;;;23.20;21.58;;;22.60;43.70;;;;;;4117560;28;20041;-47
2021/08/12 07:40:32;;;;;;;23.53;22.13;;;22.50;43.50;;;;;;4117960;28;20108;-50
2021/08/12 07:42:34;;;;;;;21.08;19.67;;;22.50;43.50;;;;;;4118580;28;20061;-52
2021/08/12 07:44:36;;;;;;;18.40;17.30;;;22.50;43.50;;;;;;4118429;28;20030;-51
2021/08/12 07:46:38;;;;;;;17.55;16.45;;;22.40;43.50;;;;;;4116456;28;20398;-51
2021/08/12 07:48:40;;;;;;;15.25;14.15;;;22.40;43.50;;;;;;4119367;28;20060;-50
2021/08/12 07:50:43;;;;;;;14.73;13.73;;;22.40;43.50;;;;;;4117360;28;20149;-48
2021/08/12 07:52:46;;;;;;;13.05;12.15;;;22.40;43.70;;;;;;4118660;28;20050;-50
2021/08/12 07:54:49;;;;;;;13.13;12.30;;;22.40;44.00;;;;;;4114567;28;20772;-49
2021/08/12 07:56:52;;;;;;;11.88;10.98;;;22.40;43.60;;;;;;4116940;28;20045;-49
2021/08/12 07:58:54;;;;;;;11.50;10.77;;;22.40;43.70;;;;;;4114853;28;20034;-53
2021/08/12 08:00:56;;;;;;;10.52;9.82;;;22.30;43.60;;;;;;4105604;28;20026;-52
2021/08/12 08:02:58;;;;;;;9.90;9.18;;;22.30;43.70;;;;;;4114183;28;20719;-48
2021/08/12 08:05:00;;;;;;;9.10;8.43;;;22.20;43.70;;;;;;4116981;28;20575;-50
2021/08/12 08:07:03;;;;;;;8.68;7.90;;;22.30;43.70;;;;;;4114935;28;20034;-56
2021/08/12 08:09:05;;;;;;;7.97;7.25;;;22.20;44.00;;;;;;4117487;28;20129;-54
2021/08/12 08:11:07;;;;;;;7.30;6.60;;;22.20;44.40;;;;;;4117491;28;20033;-53
2021/08/12 08:13:09;;;;;;;6.85;6.25;;;22.20;44.70;;;;;;4116124;28;20108;-58
2021/08/12 08:15:13;;;;;;;12.63;6.18;;;22.20;44.90;;;;;;4118377;28;20042;-57
2021/08/12 08:17:16;;;;;;;5.60;5.10;;;22.20;45.70;;;;;;4116766;28;20030;-51
2021/08/12 08:19:18;;;;;;;5.82;4.65;;;22.20;45.20;;;;;;4120393;28;20474;-58
2021/08/12 08:21:20;;;;;;;5.15;4.65;;;22.20;45.30;;;;;;4117146;28;20352;-56
2021/08/12 08:23:22;;;;;;;5.65;4.25;;;22.20;45.40;;;;;;4118827;28;20029;-55
2021/08/12 08:25:24;;;;;;;4.45;3.92;;;22.20;45.60;;;;;;4116216;28;20045;-54
2021/08/12 08:27:26;;;;;;;3.80;3.50;;;22.20;45.80;;;;;;4112607;28;20455;-57
2021/08/12 08:29:29;;;;;;;3.42;3.13;;;22.20;46.00;;;;;;4115719;28;20141;-58
2021/08/12 08:31:31;;;;;;;3.20;2.90;;;22.20;46.70;;;;;;4111221;28;20361;-56
2021/08/12 08:33:35;;;;;;;3.45;2.80;;;22.20;46.20;;;;;;4113020;28;20128;-53
2021/08/12 08:35:38;;;;;;;4.20;2.83;;;22.20;46.30;;;;;;4111257;28;20134;-53
2021/08/12 08:37:40;;;;;;;4.50;2.83;;;22.20;46.40;;;;;;4113051;28;20088;-51
2021/08/12 08:39:43;;;;;;;2.90;2.30;;;22.20;46.50;;;;;;4114161;28;20140;-55
2021/08/12 08:41:46;;;;;;;4.32;2.30;;;22.20;46.50;;;;;;4111152;28;20025;-55
2021/08/12 08:43:50;;;;;;;2.50;2.30;;;22.20;46.60;;;;;;4113676;28;20037;-51
2021/08/12 08:45:54;;;;;;;2.47;2.28;;;22.20;46.70;;;;;;4112179;28;20570;-58
2021/08/12 08:47:59;;;;;;;3.55;2.10;;;22.20;46.70;;;;;;4113653;28;20022;-56
2021/08/12 08:50:02;;;;;;;2.22;2.00;;;22.20;46.70;;;;;;4113518;28;20038;-52
2021/08/12 08:52:04;;;;;;;;;;;22.20;46.70;;;;;;4093828;28;20113;-58
2021/08/12 08:54:10;;;;;;;2.15;2.00;;;22.20;46.70;;;;;;4116484;28;19921;-55
2021/08/12 08:56:13;;;;;;;13.48;2.25;;;22.20;46.70;;;;;;4117088;28;20185;-56
2021/08/12 08:58:16;;;;;;;2.17;1.60;;;22.20;46.80;;;;;;4119413;28;20030;-50
2021/08/12 09:00:18;;;;;;;2.95;1.55;;;22.20;46.80;;;;;;4120949;28;20068;-53
2021/08/12 09:02:23;;;;;;;1.58;1.48;;;22.20;46.70;;;;;;4120038;28;20022;-55
2021/08/12 09:04:25;;;;;;;1.60;1.42;;;22.20;46.70;;;;;;4118591;28;20033;-54
2021/08/12 09:06:27;;;;;;;3.70;1.52;;;22.10;46.70;;;;;;4116165;28;20022;-54
2021/08/12 09:08:32;;;;;;;3.92;1.80;;;22.10;46.70;;;;;;4119362;28;20340;-51
2021/08/12 09:10:37;;;;;;;2.25;1.27;;;22.10;46.70;;;;;;4119147;28;20049;-55
2021/08/12 09:12:41;;;;;;;2.50;1.50;;;22.10;46.70;;;;;;4118283;28;20101;-51
2021/08/12 09:14:43;;;;;;;3.50;1.40;;;22.10;46.80;;;;;;4118180;28;20026;-53
2021/08/12 09:16:46;;;;;;;3.40;1.42;;;22.10;46.80;;;;;;4117483;28;20129;-56
2021/08/12 09:18:55;;;;;;;2.65;1.60;;;22.10;46.90;;;;;;4120824;28;20037;-55
2021/08/12 09:21:19;;;;;;;1.38;1.20;;;22.10;47.00;;;;;;4117125;28;20089;-55
2021/08/12 09:23:27;;;;;;;3.53;1.58;;;22.10;47.20;;;;;;4121137;28;20575;-54
2021/08/12 09:25:48;;;;;;;3.35;1.40;;;22.00;47.30;;;;;;4120110;28;20159;-49
2021/08/12 09:28:11;;;;;;;1.33;1.08;;;22.00;47.20;;;;;;4118973;28;21723;-51
2021/08/12 09:30:16;;;;;;;1.90;1.30;;;22.00;47.30;;;;;;4119041;28;20038;-55
2021/08/12 09:32:19;;;;;;;1.20;1.10;;;22.00;48.00;;;;;;4118250;28;20785;-52
2021/08/12 09:34:21;;;;;;;1.73;1.30;;;22.00;47.30;;;;;;4117776;28;20088;-54
2021/08/12 09:36:33;;;;;;;1.63;1.20;;;22.00;47.50;;;;;;4119071;28;20484;-51
2021/08/12 09:38:35;;;;;;;1.27;1.02;;;22.00;47.60;;;;;;4117771;28;20037;-55
2021/08/12 09:40:37;;;;;;;1.80;1.20;;;22.00;47.60;;;;;;4119415;28;20119;-54
2021/08/12 09:43:03;;;;;;;3.85;1.27;;;22.00;47.70;;;;;;4118875;28;20117;-55
2021/08/12 09:45:23;;;;;;;2.00;1.00;;;21.90;48.10;;;;;;4119304;28;20045;-54
2021/08/12 09:47:25;;;;;;;8.93;1.45;;;21.90;47.50;;;;;;4120056;28;20065;-55
2021/08/12 09:49:37;;;;;;;1.42;1.20;;;21.90;47.70;;;;;;4121053;28;20533;-53
2021/08/12 09:51:39;;;;;;;3.30;1.33;;;21.90;47.70;;;;;;4122632;28;20054;-54
2021/08/12 09:53:42;;;;;;;2.67;1.00;;;21.90;47.70;;;;;;4112503;28;20052;-50
2021/08/12 09:55:45;;;;;;;1.77;1.38;;;21.90;48.00;;;;;;4112955;28;20035;-54
2021/08/12 09:57:47;;;;;;;1.83;0.90;;;21.90;48.00;;;;;;4111432;28;20114;-51
2021/08/12 09:59:53;;;;;;;1.30;1.10;;;21.90;47.90;;;;;;4112289;28;20030;-53
2021/08/12 10:02:14;;;;;;;2.95;1.02;;;21.80;47.80;;;;;;4112332;28;20506;-54
2021/08/12 10:04:27;;;;;;;1.73;1.00;;;21.80;47.80;;;;;;4113267;28;20042;-55
2021/08/12 10:06:30;;;;;;;;;;;21.80;47.80;;;;;;4115405;28;20104;-53
2021/08/12 10:08:38;;;;;;;1.70;0.90;;;21.80;47.90;;;;;;4112856;28;20000;-52
2021/08/12 10:10:40;;;;;;;3.40;1.25;;;21.80;47.90;;;;;;4112499;28;20263;-48
2021/08/12 10:12:47;;;;;;;1.67;1.25;;;21.80;48.50;;;;;;4112490;28;20886;-51
2021/08/12 10:14:49;;;;;;;2.33;1.20;;;21.80;48.40;;;;;;4113666;28;20030;-52
2021/08/12 10:16:51;;;;;;;2.95;1.08;;;21.80;48.50;;;;;;4113048;28;20033;-54
2021/08/12 10:18:56;;;;;;;1.48;1.05;;;21.80;48.40;;;;;;4111403;28;20145;-51
2021/08/12 10:20:58;;;;;;;1.77;1.15;;;21.80;48.30;;;;;;4112306;28;20037;-53
2021/08/12 10:23:05;;;;;;;3.28;1.20;;;21.80;48.30;;;;;;4111124;28;20100;-55
2021/08/12 10:25:07;;;;;;;3.00;1.23;;;21.80;48.60;;;;;;4113815;28;20061;-53
2021/08/12 10:27:11;;;;;;;2.10;1.00;;;21.80;48.70;;;;;;4110290;28;20046;-55
2021/08/12 10:29:15;;;;;;;2.97;1.15;;;21.80;48.70;;;;;;4112422;28;20484;-56
2021/08/12 10:31:24;;;;;;;1.20;1.10;;;21.80;48.70;;;;;;4112646;28;20038;-52
2021/08/12 10:33:26;;;;;;;1.73;0.93;;;21.80;48.70;;;;;;4111210;28;20046;-51
2021/08/12 10:35:30;;;;;;;1.10;0.90;;;21.80;48.60;;;;;;4114246;28;20292;-53
2021/08/12 10:37:32;;;;;;;4.28;1.17;;;21.80;48.60;;;;;;4112004;28;20961;-56
2021/08/12 10:39:34;;;;;;;1.55;1.17;;;21.70;48.40;;;;;;4109428;28;20130;-52
2021/08/12 10:41:38;;;;;;;1.75;1.30;;;21.70;48.40;;;;;;4112112;28;20049;-51
2021/08/12 10:43:41;;;;;;;1.42;1.08;;;21.70;48.60;;;;;;4111592;28;20061;-52
2021/08/12 10:45:54;;;;;;;5.55;1.25;;;21.70;48.60;;;;;;4112087;28;20290;-48
2021/08/12 10:48:04;;;;;;;2.85;1.30;;;21.70;49.00;;;;;;4113044;28;20070;-52
2021/08/12 10:50:26;;;;;;;3.42;1.35;;;21.70;48.90;;;;;;4105756;28;20551;-51
2021/08/12 10:52:28;;;;;;;2.88;1.10;;;21.70;49.10;;;;;;4113949;28;20081;-53
2021/08/12 10:54:32;;;;;;;4.43;1.23;;;21.70;49.10;;;;;;4111111;28;20057;-52
2021/08/12 10:56:42;;;;;;;1.40;1.10;;;21.70;49.10;;;;;;4111418;28;20029;-53
2021/08/12 10:59:04;;;;;;;2.53;1.10;;;21.70;49.00;;;;;;4110999;28;20035;-49